createdAt,value
2018-03-21T00:00:55.599Z,67.21
2018-03-21T00:03:22.585Z,67.39
2018-03-21T00:05:48.859Z,67.32
2018-03-21T00:08:15.160Z,67.21
2018-03-21T00:10:41.481Z,67.26
2018-03-21T00:13:07.739Z,66.79
2018-03-21T00:15:34.160Z,66.65
2018-03-21T00:18:00.466Z,67.06
2018-03-21T00:20:26.755Z,67.08
2018-03-21T00:22:53.782Z,67.11
2018-03-21T00:25:20.820Z,66.40
2018-03-21T00:27:47.127Z,66.78
2018-03-21T00:30:13.448Z,66.73
2018-03-21T00:32:39.746Z,67.06
2018-03-21T00:35:06.834Z,67.49
2018-03-21T00:37:33.110Z,67.82
2018-03-21T00:39:59.398Z,67.46
2018-03-21T00:42:25.713Z,67.09
2018-03-21T00:44:52.065Z,67.30
2018-03-21T00:47:18.373Z,68.10
2018-03-21T00:49:44.671Z,68.37
2018-03-21T00:52:11.705Z,68.47
2018-03-21T00:54:38.039Z,68.82
2018-03-21T00:57:04.329Z,69.44
2018-03-21T00:59:30.615Z,69.53
2018-03-21T01:01:56.867Z,69.69
2018-03-21T01:04:23.890Z,70.08
2018-03-21T01:06:50.931Z,70.02
2018-03-21T01:09:18.001Z,70.37
2018-03-21T01:11:45.068Z,69.62
2018-03-21T01:14:11.380Z,69.44
2018-03-21T01:16:38.393Z,68.84
2018-03-21T01:19:04.672Z,68.92
2018-03-21T01:21:30.969Z,69.06
2018-03-21T01:23:57.264Z,69.01
2018-03-21T01:26:23.562Z,68.78
2018-03-21T01:28:49.827Z,68.59
2018-03-21T01:31:16.095Z,68.53
2018-03-21T01:33:42.358Z,67.99
2018-03-21T01:36:08.677Z,67.50
2018-03-21T01:38:35.713Z,67.37
2018-03-21T01:41:02.788Z,67.46
2018-03-21T01:43:29.053Z,67.28
2018-03-21T01:45:55.349Z,67.95
2018-03-21T01:48:21.681Z,67.41
2018-03-21T01:50:48.603Z,67.98
2018-03-21T01:53:15.664Z,68.79
2018-03-21T01:55:41.985Z,68.84
2018-03-21T01:58:09.045Z,69.51
2018-03-21T02:00:35.415Z,70.11
2018-03-21T02:03:01.752Z,69.33
2018-03-21T02:05:28.071Z,68.61
2018-03-21T02:07:54.344Z,68.55
2018-03-21T02:10:21.407Z,68.95
2018-03-21T02:12:47.670Z,69.06
2018-03-21T02:15:14.034Z,69.16
2018-03-21T02:17:40.529Z,69.07
2018-03-21T02:20:06.821Z,69.22
2018-03-21T02:22:33.872Z,69.01
2018-03-21T02:25:00.914Z,69.02
2018-03-21T02:27:27.945Z,69.46
2018-03-21T02:29:54.273Z,69.28
2018-03-21T02:32:20.542Z,69.74
2018-03-21T02:34:46.837Z,69.73
2018-03-21T02:37:13.164Z,69.46
2018-03-21T02:39:39.453Z,69.98
2018-03-21T02:42:05.741Z,70.00
2018-03-21T02:44:32.995Z,70.24
2018-03-21T02:46:59.352Z,71.06
2018-03-21T02:49:25.714Z,71.07
2018-03-21T02:51:52.001Z,71.06
2018-03-21T02:54:18.334Z,71.61
2018-03-21T02:56:45.373Z,71.55
2018-03-21T02:59:12.458Z,71.76
2018-03-21T03:01:38.758Z,71.56
2018-03-21T03:04:05.804Z,71.51
2018-03-21T03:06:32.825Z,71.06
2018-03-21T03:08:59.168Z,70.68
2018-03-21T03:11:25.472Z,70.92
2018-03-21T03:13:51.803Z,70.96
2018-03-21T03:16:18.059Z,71.33
2018-03-21T03:18:44.360Z,70.81
2018-03-21T03:21:10.635Z,70.67
2018-03-21T03:23:36.919Z,71.06
2018-03-21T03:26:03.199Z,70.59
2018-03-21T03:28:30.265Z,71.00
2018-03-21T03:30:56.558Z,71.29
2018-03-21T03:33:23.589Z,71.43
2018-03-21T03:35:49.883Z,71.06
2018-03-21T03:38:16.163Z,71.45
2018-03-21T03:40:42.436Z,71.48
2018-03-21T03:43:08.743Z,71.96
2018-03-21T03:45:35.765Z,72.59
2018-03-21T03:48:02.996Z,73.01
2018-03-21T03:50:30.007Z,73.07
2018-03-21T03:52:56.283Z,73.53
2018-03-21T03:55:22.602Z,73.52
2018-03-21T03:57:48.869Z,73.60
2018-03-21T04:00:15.893Z,73.45
2018-03-21T04:02:42.172Z,73.86
2018-03-21T04:05:08.465Z,72.99
2018-03-21T04:07:34.705Z,72.58
2018-03-21T04:10:00.986Z,72.85
2018-03-21T04:12:27.261Z,72.99
2018-03-21T04:14:53.517Z,73.11
2018-03-21T04:17:27.780Z,72.89
2018-03-21T04:19:54.104Z,73.13
2018-03-21T04:22:20.398Z,72.89
2018-03-21T04:24:46.746Z,72.85
2018-03-21T04:27:13.018Z,73.41
2018-03-21T04:29:39.315Z,73.40
2018-03-21T04:32:05.567Z,73.65
2018-03-21T04:34:31.874Z,73.50
2018-03-21T04:36:58.172Z,72.96
2018-03-21T04:39:25.173Z,73.02
2018-03-21T04:41:51.446Z,72.49
2018-03-21T04:44:18.494Z,71.49
2018-03-21T04:46:45.553Z,71.28
2018-03-21T04:49:11.811Z,71.39
2018-03-21T04:51:38.118Z,71.15
2018-03-21T04:54:04.407Z,71.06
2018-03-21T04:56:30.677Z,71.63
2018-03-21T04:58:56.995Z,70.87
2018-03-21T05:01:24.008Z,71.40
2018-03-21T05:03:50.377Z,71.68
2018-03-21T05:06:17.376Z,72.02
2018-03-21T05:08:43.685Z,71.82
2018-03-21T05:11:09.970Z,71.60
2018-03-21T05:13:36.996Z,71.38
2018-03-21T05:16:03.332Z,70.93
2018-03-21T05:18:29.660Z,70.54
2018-03-21T05:20:55.962Z,70.73
2018-03-21T05:23:22.315Z,70.60
2018-03-21T05:25:48.618Z,70.68
2018-03-21T05:28:14.917Z,70.58
2018-03-21T05:30:41.959Z,70.74
2018-03-21T05:33:09.037Z,70.01
2018-03-21T05:35:35.339Z,69.32
2018-03-21T05:38:02.423Z,68.38
2018-03-21T05:40:28.723Z,68.67
2018-03-21T05:42:55.179Z,69.03
2018-03-21T05:45:21.475Z,68.27
2018-03-21T05:47:48.536Z,67.78
2018-03-21T05:50:15.528Z,67.70
2018-03-21T05:52:41.790Z,67.15
2018-03-21T05:55:09.163Z,66.88
2018-03-21T05:57:36.238Z,66.89
2018-03-21T06:00:02.592Z,66.44
2018-03-21T06:02:28.884Z,66.29
2018-03-21T06:04:55.175Z,65.91
2018-03-21T06:07:21.515Z,65.61
2018-03-21T06:09:48.569Z,65.08
2018-03-21T06:12:14.967Z,64.76
2018-03-21T06:14:41.295Z,64.38
2018-03-21T06:17:07.595Z,64.12
2018-03-21T06:19:33.903Z,63.13
2018-03-21T06:22:00.956Z,63.13
2018-03-21T06:24:27.957Z,62.10
2018-03-21T06:26:54.208Z,61.63
2018-03-21T06:29:20.640Z,61.31
2018-03-21T06:31:46.940Z,61.52
2018-03-21T06:34:13.246Z,62.12
2018-03-21T06:36:39.551Z,60.72
2018-03-21T06:39:05.908Z,61.28
2018-03-21T06:41:32.219Z,61.78
2018-03-21T06:43:59.262Z,62.00
2018-03-21T06:46:26.448Z,62.27
2018-03-21T06:48:52.755Z,61.84
2018-03-21T06:51:19.050Z,62.47
2018-03-21T06:53:45.319Z,61.49
2018-03-21T06:56:11.635Z,61.15
2018-03-21T06:58:38.702Z,61.02
2018-03-21T07:01:05.047Z,60.15
2018-03-21T07:03:31.311Z,60.37
2018-03-21T07:05:57.624Z,60.66
2018-03-21T07:10:50.398Z,59.30
2018-03-21T07:13:16.744Z,59.44
2018-03-21T07:16:01.681Z,59.37
2018-03-21T07:18:28.000Z,57.08
2018-03-21T07:20:54.320Z,57.26
2018-03-21T07:23:20.763Z,56.80
2018-03-21T07:25:47.081Z,56.05
2018-03-21T07:28:14.138Z,57.46
2018-03-21T07:30:40.437Z,56.00
2018-03-21T07:33:06.705Z,56.48
2018-03-21T07:35:33.027Z,58.03
2018-03-21T07:37:59.350Z,57.38
2018-03-21T07:40:25.605Z,57.28
2018-03-21T07:42:51.916Z,56.63
2018-03-21T07:45:18.149Z,56.33
2018-03-21T07:47:44.472Z,55.17
2018-03-21T07:50:10.803Z,54.52
2018-03-21T07:52:37.095Z,55.98
2018-03-21T07:55:03.398Z,56.21
2018-03-21T07:57:29.669Z,55.74
2018-03-21T07:59:55.950Z,55.76
2018-03-21T08:02:22.261Z,54.95
2018-03-21T08:04:48.505Z,54.94
2018-03-21T08:07:14.812Z,54.36
2018-03-21T08:09:41.100Z,54.07
2018-03-21T08:12:08.116Z,54.67
2018-03-21T08:14:34.526Z,53.51
2018-03-21T08:17:01.566Z,52.76
2018-03-21T08:19:28.614Z,53.40
2018-03-21T08:21:55.683Z,53.43
2018-03-21T08:24:21.989Z,52.56
2018-03-21T08:26:49.063Z,52.31
2018-03-21T08:29:15.389Z,52.97
2018-03-21T08:31:41.698Z,53.45
2018-03-21T08:34:08.779Z,52.37
2018-03-21T08:36:35.090Z,53.32
2018-03-21T08:39:02.131Z,53.75
2018-03-21T08:41:28.474Z,52.32
2018-03-21T08:43:54.756Z,51.99
2018-03-21T08:46:21.058Z,51.19
2018-03-21T08:48:47.375Z,53.08
2018-03-21T08:51:13.634Z,51.99
2018-03-21T08:53:39.900Z,52.71
2018-03-21T08:56:06.234Z,52.81
2018-03-21T08:58:33.282Z,52.85
2018-03-21T09:01:00.330Z,52.80
2018-03-21T09:03:27.375Z,52.56
2018-03-21T09:05:53.649Z,52.12
2018-03-21T09:08:19.933Z,52.20
2018-03-21T09:10:46.231Z,50.79
2018-03-21T09:13:12.529Z,51.07
2018-03-21T09:15:38.832Z,49.30
2018-03-21T09:18:05.896Z,50.36
2018-03-21T09:20:32.277Z,50.32
2018-03-21T09:22:58.576Z,49.79
2018-03-21T09:25:24.935Z,49.51
2018-03-21T09:27:51.219Z,50.42
2018-03-21T09:30:18.277Z,47.72
2018-03-21T09:32:44.596Z,48.21
2018-03-21T09:35:11.651Z,48.29
2018-03-21T09:37:37.980Z,49.94
2018-03-21T09:40:04.268Z,50.13
2018-03-21T09:42:30.543Z,49.22
2018-03-21T09:44:56.813Z,48.47
2018-03-21T09:47:23.130Z,48.55
2018-03-21T09:49:49.410Z,47.96
2018-03-21T09:52:15.791Z,47.04
2018-03-21T09:54:42.099Z,46.98
2018-03-21T09:57:08.400Z,45.38
2018-03-21T09:59:34.689Z,47.84
2018-03-21T10:02:01.000Z,47.47
2018-03-21T10:04:27.285Z,46.59
2018-03-21T10:06:53.621Z,48.24
2018-03-21T10:09:19.967Z,46.45
2018-03-21T10:11:46.999Z,45.00
2018-03-21T10:14:13.321Z,43.88
2018-03-21T10:16:47.472Z,44.32
2018-03-21T10:19:13.785Z,42.46
2018-03-21T10:21:40.855Z,43.09
2018-03-21T10:24:07.173Z,43.24
2018-03-21T10:26:34.226Z,45.17
2018-03-21T10:29:01.273Z,45.25
2018-03-21T10:31:28.289Z,45.64
2018-03-21T10:33:54.573Z,44.24
2018-03-21T10:36:20.883Z,42.53
2018-03-21T10:38:48.066Z,43.46
2018-03-21T10:41:14.354Z,42.16
2018-03-21T10:43:41.399Z,44.32
2018-03-21T10:46:08.448Z,44.83
2018-03-21T10:48:35.508Z,44.90
2018-03-21T10:51:02.585Z,45.42
2018-03-21T10:53:28.886Z,45.52
2018-03-21T10:55:55.912Z,47.17
2018-03-21T10:58:22.258Z,46.02
2018-03-21T11:00:49.296Z,45.80
2018-03-21T11:03:15.637Z,44.72
2018-03-21T11:05:42.679Z,45.25
2018-03-21T11:08:08.993Z,45.96
2018-03-21T11:10:35.237Z,45.02
2018-03-21T11:13:02.286Z,43.66
2018-03-21T11:15:29.344Z,44.70
2018-03-21T11:17:56.372Z,44.79
2018-03-21T11:20:22.682Z,44.82
2018-03-21T11:22:49.028Z,43.55
2018-03-21T11:25:15.362Z,42.05
2018-03-21T11:27:41.672Z,40.95
2018-03-21T11:30:08.000Z,40.06
2018-03-21T11:32:34.334Z,40.17
2018-03-21T11:35:00.704Z,39.11
2018-03-21T11:37:27.751Z,38.73
2018-03-21T11:39:54.784Z,34.21
2018-03-21T11:42:21.081Z,30.56
2018-03-21T11:44:47.421Z,31.25
2018-03-21T11:47:13.718Z,33.25
2018-03-21T11:49:40.019Z,31.53
2018-03-21T11:52:07.082Z,27.52
2018-03-21T11:54:33.387Z,22.64
2018-03-21T11:56:59.703Z,22.40
2018-03-21T11:59:26.035Z,20.42
2018-03-21T12:01:52.375Z,20.68
2018-03-21T12:04:18.709Z,20.01
2018-03-21T12:06:45.052Z,19.09
2018-03-21T12:09:11.368Z,16.67
2018-03-21T12:11:37.712Z,16.47
2018-03-21T12:14:04.064Z,19.63
2018-03-21T12:16:30.379Z,25.18
2018-03-21T12:18:57.485Z,30.27
2018-03-21T12:21:23.833Z,23.92
2018-03-21T12:23:50.156Z,21.27
2018-03-21T12:26:17.271Z,20.73
2018-03-21T12:28:43.599Z,22.56
2018-03-21T12:31:10.160Z,22.29
2018-03-21T12:33:36.544Z,19.70
2018-03-21T12:36:02.847Z,23.66
2018-03-21T12:38:29.168Z,22.38
2018-03-21T12:40:55.470Z,29.17
2018-03-21T12:43:21.794Z,31.77
2018-03-21T12:45:48.128Z,28.55
2018-03-21T12:48:14.423Z,23.51
2018-03-21T12:50:40.741Z,19.83
2018-03-21T12:53:07.251Z,17.76
2018-03-21T12:55:33.549Z,17.19
2018-03-21T12:57:59.902Z,17.80
2018-03-21T13:00:26.279Z,21.57
2018-03-21T13:02:52.603Z,23.37
2018-03-21T13:05:18.905Z,19.55
2018-03-21T13:07:45.277Z,18.34
2018-03-21T13:10:12.376Z,22.02
2018-03-21T13:12:38.636Z,26.33
2018-03-21T13:15:04.907Z,31.11
2018-03-21T13:17:31.182Z,32.25
2018-03-21T13:19:57.453Z,30.62
2018-03-21T13:22:23.746Z,28.40
2018-03-21T13:24:50.100Z,29.62
2018-03-21T13:27:16.434Z,30.54
2018-03-21T13:29:42.742Z,32.54
2018-03-21T13:32:09.112Z,27.16
2018-03-21T13:34:35.414Z,24.77
2018-03-21T13:37:01.730Z,28.55
2018-03-21T13:39:28.002Z,29.36
2018-03-21T13:41:55.048Z,23.16
2018-03-21T13:44:22.107Z,19.65
2018-03-21T13:46:48.475Z,18.52
2018-03-21T13:49:14.819Z,20.05
2018-03-21T13:51:41.138Z,20.67
2018-03-21T13:54:07.535Z,17.12
2018-03-21T13:56:33.864Z,14.53
2018-03-21T13:59:00.905Z,14.83
2018-03-21T14:01:27.965Z,13.94
2018-03-21T14:03:54.249Z,14.52
2018-03-21T14:06:20.656Z,13.46
2018-03-21T14:08:47.002Z,15.51
2018-03-21T14:11:13.310Z,14.29
2018-03-21T14:13:39.637Z,17.44
2018-03-21T14:16:05.920Z,20.75
2018-03-21T14:18:33.058Z,19.19
2018-03-21T14:20:59.324Z,21.08
2018-03-21T14:23:25.640Z,25.32
2018-03-21T14:25:51.916Z,28.25
2018-03-21T14:28:18.255Z,29.22
2018-03-21T14:30:44.597Z,30.89
2018-03-21T14:33:10.876Z,27.78
2018-03-21T14:35:37.959Z,26.58
2018-03-21T14:38:04.209Z,19.83
2018-03-21T14:40:30.497Z,16.43
2018-03-21T14:42:56.811Z,15.12
2018-03-21T14:45:23.950Z,14.23
2018-03-21T14:47:50.271Z,14.90
2018-03-21T14:50:16.577Z,14.55
2018-03-21T14:52:42.881Z,13.47
2018-03-21T14:55:09.185Z,12.70
2018-03-21T14:57:35.510Z,11.93
2018-03-21T15:00:01.780Z,11.39
2018-03-21T15:02:28.039Z,13.27
2018-03-21T15:04:54.349Z,11.90
2018-03-21T15:07:20.712Z,10.82
2018-03-21T15:09:47.091Z,11.65
2018-03-21T15:12:13.397Z,12.18
2018-03-21T15:14:40.552Z,13.50
2018-03-21T15:17:07.614Z,13.61
2018-03-21T15:19:33.941Z,12.23
2018-03-21T15:22:01.026Z,12.09
2018-03-21T15:24:27.351Z,11.80
2018-03-21T15:26:53.724Z,11.39
2018-03-21T15:29:20.066Z,12.38
2018-03-21T15:31:47.195Z,13.42
2018-03-21T15:34:13.564Z,13.72
2018-03-21T15:36:40.649Z,13.39
2018-03-21T15:39:06.943Z,13.73
2018-03-21T15:41:33.999Z,14.36
2018-03-21T15:44:00.362Z,14.86
2018-03-21T15:46:26.665Z,14.89
2018-03-21T15:48:52.967Z,15.53
2018-03-21T15:51:19.456Z,16.43
2018-03-21T15:53:46.546Z,17.51
2018-03-21T15:56:12.865Z,17.77
2018-03-21T15:58:39.228Z,18.36
2018-03-21T16:01:06.275Z,20.05
2018-03-21T16:03:33.397Z,21.65
2018-03-21T16:05:59.787Z,24.11
2018-03-21T16:08:26.802Z,25.82
2018-03-21T16:10:53.876Z,27.33
2018-03-21T16:13:20.284Z,28.46
2018-03-21T16:15:47.389Z,29.89
2018-03-21T16:18:13.765Z,30.00
2018-03-21T16:20:41.039Z,30.36
2018-03-21T16:23:07.747Z,31.41
2018-03-21T16:25:34.154Z,32.14
2018-03-21T16:28:00.594Z,33.25
2018-03-21T16:30:27.718Z,33.89
2018-03-21T16:32:54.091Z,33.40
2018-03-21T16:35:20.437Z,34.00
2018-03-21T16:37:47.500Z,33.99
2018-03-21T16:40:14.606Z,33.35
2018-03-21T16:42:40.937Z,33.99
2018-03-21T16:45:07.278Z,33.84
2018-03-21T16:47:33.651Z,33.98
2018-03-21T16:50:00.054Z,34.72
2018-03-21T16:52:27.150Z,34.80
2018-03-21T16:54:54.555Z,35.81
2018-03-21T16:57:20.861Z,36.24
2018-03-21T16:59:47.185Z,36.40
2018-03-21T17:02:13.518Z,37.24
2018-03-21T17:04:39.862Z,38.28
2018-03-21T17:07:06.981Z,39.39
2018-03-21T17:09:33.311Z,40.68
2018-03-21T17:11:59.645Z,41.41
2018-03-21T17:14:26.047Z,42.00
2018-03-21T17:16:53.104Z,42.40
2018-03-21T17:19:19.419Z,42.89
2018-03-21T17:21:46.456Z,43.02
2018-03-21T17:24:12.866Z,42.80
2018-03-21T17:26:39.276Z,43.31
2018-03-21T17:29:05.590Z,43.15
2018-03-21T17:31:32.001Z,42.96
2018-03-21T17:33:58.415Z,42.96
2018-03-21T17:36:24.760Z,43.41
2018-03-21T17:38:51.155Z,43.61
2018-03-21T17:41:17.412Z,44.02
2018-03-21T17:43:43.741Z,44.08
2018-03-21T17:46:10.037Z,44.63
2018-03-21T17:48:36.421Z,44.73
2018-03-21T17:51:02.693Z,44.82
2018-03-21T17:53:29.092Z,44.75
2018-03-21T17:55:56.187Z,44.79
2018-03-21T17:58:22.626Z,44.87
2018-03-21T18:00:49.012Z,45.04
2018-03-21T18:03:15.579Z,45.04
2018-03-21T18:05:41.974Z,44.80
2018-03-21T18:08:09.130Z,44.64
2018-03-21T18:10:35.640Z,44.97
2018-03-21T18:13:02.884Z,44.78
2018-03-21T18:15:29.401Z,45.10
2018-03-21T18:17:55.862Z,45.08
2018-03-21T18:20:23.071Z,44.83
2018-03-21T18:22:49.490Z,44.93
2018-03-21T18:25:15.886Z,45.01
2018-03-21T18:27:42.235Z,45.29
2018-03-21T18:30:09.382Z,45.37
2018-03-21T18:32:36.461Z,45.44
2018-03-21T18:35:02.792Z,45.71
2018-03-21T18:37:29.131Z,45.61
2018-03-21T18:39:55.494Z,45.36
2018-03-21T18:42:21.969Z,45.32
2018-03-21T18:44:48.502Z,44.88
2018-03-21T18:55:53.028Z,45.21
2018-03-21T18:58:19.651Z,44.88
2018-03-21T19:00:46.238Z,44.73
2018-03-21T19:03:14.189Z,44.62
2018-03-21T19:05:40.761Z,44.76
2018-03-21T19:08:07.372Z,44.78
2018-03-21T19:10:34.609Z,44.87
2018-03-21T19:15:34.169Z,45.56
2018-03-21T19:18:01.192Z,45.96
2018-03-21T19:20:28.501Z,46.00
2018-03-21T19:22:54.880Z,46.11
2018-03-21T19:25:21.293Z,46.08
2018-03-21T19:27:47.655Z,46.33
2018-03-21T19:30:13.953Z,46.40
2018-03-21T19:32:40.329Z,46.61
2018-03-21T19:35:07.471Z,46.63
2018-03-21T19:37:33.852Z,46.73
2018-03-21T19:40:00.230Z,46.47
2018-03-21T19:42:26.697Z,46.63
2018-03-21T19:44:53.038Z,46.41
2018-03-21T19:47:20.096Z,46.80
2018-03-21T19:49:46.442Z,46.97
2018-03-21T19:52:12.733Z,46.50
2018-03-21T19:54:39.827Z,46.57
2018-03-21T19:57:06.226Z,46.39
2018-03-21T19:59:32.564Z,46.72
2018-03-21T20:01:59.456Z,46.24
2018-03-21T20:04:26.644Z,45.95
2018-03-21T20:06:54.541Z,46.47
2018-03-21T20:09:22.619Z,46.58
2018-03-21T20:11:50.602Z,47.08
2018-03-21T20:14:16.996Z,47.39
2018-03-21T20:16:43.260Z,47.66
2018-03-21T20:19:09.573Z,47.99
2018-03-21T20:21:35.942Z,48.08
2018-03-21T20:24:02.277Z,48.17
2018-03-21T20:26:28.668Z,48.04
2018-03-21T20:28:54.988Z,48.01
2018-03-21T20:31:21.302Z,47.73
2018-03-21T20:33:47.588Z,47.69
2018-03-21T20:36:13.896Z,47.24
2018-03-21T20:38:40.220Z,46.72
2018-03-21T20:41:06.536Z,46.58
2018-03-21T20:43:32.832Z,46.05
2018-03-21T20:45:59.218Z,45.75
2018-03-21T20:48:25.597Z,45.51
2018-03-21T20:50:51.984Z,45.88
2018-03-21T20:53:18.284Z,46.76
2018-03-21T20:55:44.611Z,46.76
2018-03-21T20:58:10.956Z,46.57
2018-03-21T21:00:37.235Z,46.56
2018-03-21T21:03:03.579Z,46.27
2018-03-21T21:05:29.879Z,46.25
2018-03-21T21:07:56.215Z,46.38
2018-03-21T21:10:22.548Z,46.20
2018-03-21T21:12:49.033Z,45.93
2018-03-21T21:15:15.327Z,45.85
2018-03-21T21:17:41.828Z,45.74
2018-03-21T21:20:08.161Z,45.68
2018-03-21T21:22:34.498Z,45.62
2018-03-21T21:25:00.851Z,45.45
2018-03-21T21:27:27.155Z,45.14
2018-03-21T21:29:53.457Z,45.31
2018-03-21T21:32:20.522Z,45.05
2018-03-21T21:34:46.914Z,45.19
2018-03-21T21:37:13.305Z,45.28
2018-03-21T21:39:39.630Z,45.49
2018-03-21T21:42:05.955Z,45.22
2018-03-21T21:44:32.296Z,45.23
2018-03-21T21:46:58.616Z,44.99
2018-03-21T21:49:24.950Z,44.97
2018-03-21T21:51:51.251Z,44.80
2018-03-21T21:54:18.270Z,44.80
2018-03-21T21:56:44.551Z,44.64
2018-03-21T21:59:10.913Z,44.46
2018-03-21T22:01:37.288Z,44.43
2018-03-21T22:04:03.660Z,44.32
2018-03-21T22:06:30.001Z,44.04
2018-03-21T22:08:56.279Z,43.62
2018-03-21T22:11:23.359Z,43.99
2018-03-21T22:13:49.682Z,43.71
2018-03-21T22:16:15.951Z,43.87
2018-03-21T22:18:42.260Z,43.91
2018-03-21T22:21:08.562Z,44.04
2018-03-21T22:23:35.551Z,44.05
2018-03-21T22:26:01.860Z,43.86
2018-03-21T22:28:28.126Z,43.80
2018-03-21T22:30:54.406Z,43.53
2018-03-21T22:33:21.418Z,43.35
2018-03-21T22:35:47.762Z,43.57
2018-03-21T22:38:14.814Z,43.43
2018-03-21T22:40:41.104Z,43.36
2018-03-21T22:43:07.413Z,43.13
2018-03-21T22:45:33.708Z,43.29
2018-03-21T22:48:00.715Z,42.97
2018-03-21T22:50:27.003Z,42.73
2018-03-21T22:52:53.346Z,42.51
2018-03-21T22:55:19.685Z,42.31
2018-03-21T22:57:45.926Z,42.00
2018-03-21T23:00:12.247Z,41.75
2018-03-21T23:02:38.607Z,41.89
2018-03-21T23:05:04.931Z,41.79
2018-03-21T23:07:31.246Z,41.84
2018-03-21T23:09:57.628Z,41.92
2018-03-21T23:12:23.920Z,42.19
2018-03-21T23:14:50.256Z,42.15
2018-03-21T23:17:16.542Z,42.27
2018-03-21T23:19:43.608Z,42.48
2018-03-21T23:22:09.977Z,42.34
2018-03-21T23:24:36.254Z,42.30
2018-03-21T23:27:03.302Z,42.13
2018-03-21T23:29:29.565Z,42.19
2018-03-21T23:31:55.859Z,42.15
2018-03-21T23:34:22.932Z,41.98
2018-03-21T23:36:49.267Z,42.04
2018-03-21T23:39:15.535Z,42.02
2018-03-21T23:41:41.815Z,42.33
2018-03-21T23:44:08.061Z,42.30
2018-03-21T23:46:34.370Z,42.30
2018-03-21T23:49:00.671Z,42.41
2018-03-21T23:51:27.781Z,42.66
2018-03-21T23:53:54.085Z,42.78
2018-03-21T23:56:20.351Z,43.13
2018-03-21T23:58:46.651Z,43.26
